createdAt,value
2019-01-19T00:02:28.039Z,15.53
2019-01-19T00:05:47.541Z,17.60
2019-01-19T00:08:25.265Z,13.17
2019-01-19T00:11:39.188Z,14.60
2019-01-19T00:14:22.406Z,12.33
2019-01-19T00:17:38.729Z,16.00
2019-01-19T00:20:29.360Z,12.10
2019-01-19T00:23:33.250Z,14.90
2019-01-19T00:26:45.718Z,11.37
2019-01-19T00:29:37.744Z,11.17
2019-01-19T00:32:20.507Z,14.57
2019-01-19T00:35:18.048Z,10.83
2019-01-19T00:38:21.113Z,12.67
2019-01-19T00:41:34.346Z,11.57
2019-01-19T00:44:14.157Z,9.40
2019-01-19T00:47:33.361Z,9.53
2019-01-19T00:50:11.990Z,10.80
2019-01-19T00:53:02.579Z,9.93
2019-01-19T00:55:59.541Z,11.27
2019-01-19T00:59:06.449Z,11.23
2019-01-19T01:02:24.117Z,11.70
2019-01-19T01:05:17.297Z,10.47
2019-01-19T01:08:23.188Z,12.37
2019-01-19T01:11:00.481Z,10.60
2019-01-19T01:13:44.814Z,9.00
2019-01-19T01:16:42.368Z,8.87
2019-01-19T01:19:49.509Z,11.97
2019-01-19T01:22:58.540Z,10.70
2019-01-19T01:25:54.489Z,9.00
2019-01-19T01:28:52.591Z,8.80
2019-01-19T01:31:34.497Z,9.07
2019-01-19T01:35:03.381Z,8.87
2019-01-19T01:37:54.677Z,10.97
2019-01-19T01:41:11.248Z,10.57
2019-01-19T01:44:20.687Z,9.13
2019-01-19T01:47:42.291Z,10.03
2019-01-19T01:50:25.225Z,8.10
2019-01-19T01:53:34.489Z,8.53
2019-01-19T01:56:09.185Z,8.57
2019-01-19T01:59:03.238Z,9.53
2019-01-19T02:01:47.427Z,5.47
2019-01-19T02:05:12.346Z,6.70
2019-01-19T02:08:31.618Z,9.63
2019-01-19T02:11:31.195Z,10.63
2019-01-19T02:14:46.086Z,9.17
2019-01-19T02:18:04.459Z,7.93
2019-01-19T02:20:47.418Z,8.13
2019-01-19T02:23:54.197Z,6.97
2019-01-19T02:27:02.743Z,6.73
2019-01-19T02:30:10.910Z,6.73
2019-01-19T02:33:00.048Z,6.97
2019-01-19T02:36:09.692Z,9.87
2019-01-19T02:39:11.418Z,7.03
2019-01-19T02:42:08.913Z,6.70
2019-01-19T02:45:17.118Z,7.00
2019-01-19T02:48:39.711Z,6.73
2019-01-19T02:51:18.938Z,11.60
2019-01-19T02:54:03.649Z,8.27
2019-01-19T02:56:58.465Z,7.60
2019-01-19T02:59:53.948Z,7.83
2019-01-19T03:02:41.883Z,6.87
2019-01-19T03:05:56.081Z,7.30
2019-01-19T03:09:21.211Z,6.90
2019-01-19T03:12:33.111Z,8.57
2019-01-19T03:15:49.290Z,6.50
2019-01-19T03:19:02.963Z,8.17
2019-01-19T03:22:06.499Z,6.97
2019-01-19T03:25:11.796Z,4.97
2019-01-19T03:28:04.848Z,4.87
2019-01-19T03:31:39.198Z,6.60
2019-01-19T03:34:52.992Z,6.97
2019-01-19T03:37:48.169Z,6.10
2019-01-19T03:40:44.610Z,5.93
2019-01-19T03:43:47.682Z,7.23
2019-01-19T03:46:51.419Z,5.10
2019-01-19T03:49:52.177Z,6.03
2019-01-19T03:52:42.432Z,5.63
2019-01-19T03:56:04.926Z,7.63
2019-01-19T03:59:02.123Z,6.33
2019-01-19T04:02:05.114Z,5.03
2019-01-19T04:05:14.231Z,4.77
2019-01-19T04:08:20.193Z,5.33
2019-01-19T04:11:18.224Z,5.50
2019-01-19T04:14:06.213Z,4.30
2019-01-19T04:17:34.963Z,5.07
2019-01-19T04:20:34.723Z,15.20
2019-01-19T04:23:06.102Z,5.10
2019-01-19T04:25:49.204Z,6.37
2019-01-19T04:28:20.606Z,6.57
2019-01-19T04:30:49.820Z,4.17
2019-01-19T04:33:18.990Z,4.60
2019-01-19T04:35:48.173Z,4.53
2019-01-19T04:38:17.414Z,3.97
2019-01-19T04:40:46.582Z,4.73
2019-01-19T04:43:15.724Z,5.07
2019-01-19T04:45:44.913Z,4.80
2019-01-19T04:48:14.716Z,4.07
2019-01-19T04:50:43.905Z,3.77
2019-01-19T04:53:13.103Z,4.80
2019-01-19T04:55:42.296Z,4.33
2019-01-19T04:58:11.501Z,3.60
2019-01-19T05:00:40.681Z,4.13
2019-01-19T05:03:09.858Z,3.93
2019-01-19T05:05:39.338Z,4.70
2019-01-19T05:08:08.850Z,3.53
2019-01-19T05:10:38.297Z,3.80
2019-01-19T05:13:07.477Z,3.83
2019-01-19T05:15:36.682Z,3.30
2019-01-19T05:18:06.058Z,4.10
2019-01-19T05:20:35.498Z,4.07
2019-01-19T05:23:04.720Z,3.67
2019-01-19T05:25:33.990Z,4.30
2019-01-19T05:28:03.155Z,3.93
2019-01-19T05:30:32.393Z,3.17
2019-01-19T05:33:01.555Z,3.97
2019-01-19T05:35:30.750Z,5.40
2019-01-19T05:38:01.869Z,2.77
2019-01-19T05:40:30.809Z,4.57
2019-01-19T05:42:59.949Z,3.30
2019-01-19T05:45:29.153Z,5.63
2019-01-19T05:47:58.707Z,5.60
2019-01-19T05:50:27.957Z,3.97
2019-01-19T05:52:57.164Z,6.13
2019-01-19T05:55:26.351Z,11.17
2019-01-19T05:57:55.561Z,6.73
2019-01-19T06:00:32.107Z,5.57
2019-01-19T06:03:01.301Z,13.57
2019-01-19T06:05:31.138Z,7.17
2019-01-19T06:08:00.311Z,3.90
2019-01-19T06:10:29.518Z,7.00
2019-01-19T06:12:58.718Z,4.83
2019-01-19T06:15:27.877Z,5.13
2019-01-19T06:17:57.305Z,5.43
2019-01-19T06:20:26.499Z,4.20
2019-01-19T06:22:55.693Z,4.67
2019-01-19T06:25:24.935Z,6.20
2019-01-19T06:27:54.108Z,2.97
2019-01-19T06:30:24.280Z,3.80
2019-01-19T06:32:53.505Z,4.80
2019-01-19T06:35:23.401Z,3.67
2019-01-19T06:37:52.630Z,3.20
2019-01-19T06:40:21.795Z,3.97
2019-01-19T06:42:51.008Z,3.83
2019-01-19T06:45:27.016Z,3.40
2019-01-19T06:47:56.231Z,3.17
2019-01-19T06:50:25.688Z,3.90
2019-01-19T06:52:55.147Z,3.60
2019-01-19T06:55:27.445Z,2.90
2019-01-19T06:57:56.929Z,3.00
2019-01-19T07:00:26.081Z,3.30
2019-01-19T07:02:55.229Z,3.63
2019-01-19T07:05:24.421Z,2.57
2019-01-19T07:07:53.607Z,3.60
2019-01-19T07:10:24.030Z,4.20
2019-01-19T07:12:53.209Z,2.93
2019-01-19T07:15:23.158Z,3.97
2019-01-19T07:17:52.336Z,2.80
2019-01-19T07:20:24.186Z,3.00
2019-01-19T07:22:53.337Z,3.23
2019-01-19T07:25:22.529Z,3.77
2019-01-19T07:27:51.729Z,4.20
2019-01-19T07:30:21.181Z,2.63
2019-01-19T07:32:50.343Z,2.67
2019-01-19T07:35:19.545Z,3.37
2019-01-19T07:37:48.708Z,3.93
2019-01-19T07:40:18.240Z,3.67
2019-01-19T07:42:48.217Z,3.97
2019-01-19T07:45:17.392Z,3.77
2019-01-19T07:47:46.571Z,3.03
2019-01-19T07:50:17.208Z,3.80
2019-01-19T07:52:46.400Z,5.27
2019-01-19T07:55:17.216Z,3.70
2019-01-19T07:57:47.632Z,3.43
2019-01-19T08:00:29.083Z,3.97
2019-01-19T08:02:58.326Z,3.17
2019-01-19T08:05:27.726Z,4.13
2019-01-19T08:07:56.975Z,2.93
2019-01-19T08:10:26.165Z,4.40
2019-01-19T08:12:55.658Z,5.10
2019-01-19T08:15:26.141Z,4.27
2019-01-19T08:17:55.379Z,11.00
2019-01-19T08:20:24.566Z,13.53
2019-01-19T08:22:53.729Z,14.50
2019-01-19T08:25:23.279Z,19.23
2019-01-19T08:27:52.465Z,16.47
2019-01-19T08:30:23.721Z,18.20
2019-01-19T08:32:52.893Z,22.83
2019-01-19T08:35:22.108Z,23.43
2019-01-19T08:37:51.469Z,11.37
2019-01-19T08:40:25.919Z,12.97
2019-01-19T08:43:03.086Z,8.80
2019-01-19T08:45:32.253Z,12.77
2019-01-19T08:48:03.475Z,11.77
2019-01-19T08:50:32.895Z,15.80
2019-01-19T08:53:02.399Z,11.07
2019-01-19T08:55:31.595Z,12.67
2019-01-19T08:58:00.829Z,18.97
2019-01-19T09:00:30.429Z,9.03
2019-01-19T09:02:59.953Z,8.70
2019-01-19T09:05:29.177Z,7.87
2019-01-19T09:07:58.378Z,12.47
2019-01-19T09:10:27.636Z,6.87
2019-01-19T09:12:56.811Z,7.47
2019-01-19T09:15:26.065Z,9.27
2019-01-19T09:17:55.280Z,10.53
2019-01-19T09:20:24.471Z,11.40
2019-01-19T09:22:58.028Z,11.00
2019-01-19T09:25:27.232Z,13.20
2019-01-19T09:27:56.389Z,14.40
2019-01-19T09:30:25.552Z,22.27
2019-01-19T09:32:55.022Z,15.77
2019-01-19T09:35:24.218Z,13.07
2019-01-19T09:37:53.397Z,12.97
2019-01-19T09:40:22.582Z,10.30
2019-01-19T09:42:51.685Z,8.10
2019-01-19T09:45:20.886Z,8.97
2019-01-19T09:47:50.078Z,11.40
2019-01-19T09:50:19.309Z,8.50
2019-01-19T09:52:48.482Z,11.20
2019-01-19T09:55:17.675Z,10.63
2019-01-19T09:57:46.905Z,9.93
2019-01-19T10:00:17.026Z,9.63
2019-01-19T10:02:46.218Z,11.73
2019-01-19T10:05:18.141Z,13.07
2019-01-19T10:07:48.621Z,16.17
2019-01-19T10:10:18.167Z,8.40
2019-01-19T10:12:47.320Z,8.30
2019-01-19T10:15:16.909Z,9.97
2019-01-19T10:17:46.122Z,10.83
2019-01-19T10:20:18.216Z,7.90
2019-01-19T10:22:48.325Z,10.77
2019-01-19T10:25:17.600Z,12.37
2019-01-19T10:27:46.784Z,8.67
2019-01-19T10:30:18.278Z,10.30
2019-01-19T10:32:47.462Z,10.63
2019-01-19T10:35:16.959Z,9.00
2019-01-19T10:37:46.270Z,11.50
2019-01-19T10:40:15.770Z,12.87
2019-01-19T10:42:46.734Z,10.13
2019-01-19T10:45:21.345Z,9.47
2019-01-19T10:47:50.545Z,15.17
2019-01-19T10:50:19.937Z,15.00
2019-01-19T10:52:49.170Z,12.10
2019-01-19T10:55:19.578Z,8.53
2019-01-19T10:57:48.735Z,12.93
2019-01-19T11:00:20.498Z,10.70
2019-01-19T11:02:49.700Z,11.00
2019-01-19T11:05:18.912Z,10.07
2019-01-19T11:07:48.950Z,9.83
2019-01-19T11:10:20.206Z,10.30
2019-01-19T11:12:49.410Z,12.70
2019-01-19T11:15:18.725Z,12.90
2019-01-19T11:17:47.905Z,11.50
2019-01-19T11:20:19.830Z,10.23
2019-01-19T11:22:49.058Z,12.97
2019-01-19T11:25:18.296Z,13.83
2019-01-19T11:27:47.464Z,10.27
2019-01-19T11:30:19.076Z,11.40
2019-01-19T11:32:48.226Z,12.40
2019-01-19T11:35:18.245Z,16.83
2019-01-19T11:37:47.477Z,13.83
2019-01-19T11:40:19.303Z,20.27
2019-01-19T11:42:48.802Z,18.80
2019-01-19T11:45:20.014Z,19.17
2019-01-19T11:47:49.229Z,21.50
2019-01-19T11:50:18.370Z,18.70
2019-01-19T11:52:47.672Z,19.93
2019-01-19T11:55:19.034Z,15.87
2019-01-19T11:57:51.242Z,15.23
2019-01-19T12:00:22.401Z,17.87
2019-01-19T12:02:51.621Z,16.93
2019-01-19T12:05:20.818Z,12.83
2019-01-19T12:07:50.005Z,13.93
2019-01-19T12:10:21.267Z,16.60
2019-01-19T12:12:50.533Z,13.30
2019-01-19T12:15:19.827Z,15.57
2019-01-19T12:17:49.009Z,12.43
2019-01-19T12:20:20.724Z,11.97
2019-01-19T12:23:02.096Z,11.83
2019-01-19T12:25:34.114Z,13.67
2019-01-19T12:28:03.338Z,12.23
2019-01-19T12:30:32.546Z,10.90
2019-01-19T12:33:01.817Z,9.53
2019-01-19T12:35:30.997Z,13.23
2019-01-19T12:38:00.297Z,12.33
2019-01-19T12:40:29.581Z,11.57
2019-01-19T12:43:17.649Z,10.93
2019-01-19T12:46:02.039Z,11.07
2019-01-19T12:48:31.690Z,9.10
2019-01-19T12:51:02.642Z,12.10
2019-01-19T12:53:31.837Z,11.83
2019-01-19T12:56:01.245Z,9.30
2019-01-19T12:58:30.393Z,10.63
2019-01-19T13:00:59.605Z,10.73
2019-01-19T13:03:28.872Z,10.80
2019-01-19T13:06:42.158Z,10.23
2019-01-19T13:09:26.310Z,8.83
2019-01-19T13:12:24.629Z,8.37
2019-01-19T13:15:36.135Z,8.90
2019-01-19T13:18:47.848Z,7.53
2019-01-19T13:22:00.006Z,8.87
2019-01-19T13:24:53.537Z,7.73
2019-01-19T13:27:52.390Z,8.73
2019-01-19T13:30:27.739Z,9.37
2019-01-19T13:33:09.009Z,8.97
2019-01-19T13:36:20.853Z,7.10
2019-01-19T13:39:12.288Z,8.10
2019-01-19T13:42:04.150Z,13.47
2019-01-19T13:45:13.257Z,8.63
2019-01-19T13:48:30.215Z,7.00
2019-01-19T13:51:46.438Z,7.37
2019-01-19T13:55:11.904Z,10.30
2019-01-19T13:58:21.501Z,11.07
2019-01-19T14:01:52.775Z,6.33
2019-01-19T14:05:02.056Z,6.63
2019-01-19T14:08:27.960Z,15.63
2019-01-19T14:11:40.282Z,7.80
2019-01-19T14:14:42.937Z,7.13
2019-01-19T14:17:39.704Z,7.63
2019-01-19T14:20:23.254Z,7.30
2019-01-19T14:23:23.175Z,9.10
2019-01-19T14:26:23.210Z,5.50
2019-01-19T14:29:49.218Z,8.27
2019-01-19T14:33:15.585Z,8.10
2019-01-19T14:36:21.598Z,5.20
2019-01-19T14:39:40.742Z,11.83
2019-01-19T14:42:35.912Z,9.00
2019-01-19T14:45:31.507Z,7.40
2019-01-19T14:48:30.494Z,6.17
2019-01-19T14:51:33.856Z,8.23
2019-01-19T14:54:33.766Z,6.03
2019-01-19T14:57:36.090Z,5.03
2019-01-19T15:00:31.955Z,5.43
2019-01-19T15:03:23.353Z,6.63
2019-01-19T15:06:41.307Z,4.50
2019-01-19T15:09:21.954Z,6.00
2019-01-19T15:12:25.969Z,8.13
2019-01-19T15:15:33.562Z,12.20
2019-01-19T15:18:36.654Z,10.30
2019-01-19T15:21:35.806Z,7.17
2019-01-19T15:24:30.366Z,11.73
2019-01-19T15:27:38.185Z,8.93
2019-01-19T15:31:00.523Z,9.17
2019-01-19T15:34:20.294Z,8.03
2019-01-19T15:37:37.438Z,8.30
2019-01-19T15:41:08.963Z,12.40
2019-01-19T15:44:17.534Z,7.57
2019-01-19T15:47:39.057Z,11.10
2019-01-19T15:50:53.280Z,9.47
2019-01-19T15:53:42.268Z,7.90
2019-01-19T15:56:56.843Z,9.53
2019-01-19T15:59:54.546Z,9.87
2019-01-19T16:02:37.715Z,11.97
2019-01-19T16:05:25.721Z,7.10
2019-01-19T16:08:21.886Z,9.13
2019-01-19T16:11:47.533Z,11.03
2019-01-19T16:15:10.407Z,7.27
2019-01-19T16:18:10.441Z,10.20
2019-01-19T16:21:30.129Z,8.63
2019-01-19T16:24:28.741Z,11.10
2019-01-19T16:27:33.590Z,8.97
2019-01-19T16:30:19.778Z,11.23
2019-01-19T16:33:25.117Z,8.50
2019-01-19T16:36:19.145Z,9.67
2019-01-19T16:39:47.747Z,7.60
2019-01-19T16:42:32.074Z,9.80
2019-01-19T16:45:57.562Z,7.93
2019-01-19T16:49:00.762Z,9.90
2019-01-19T16:51:39.577Z,10.03
2019-01-19T16:54:36.898Z,14.93
2019-01-19T16:57:50.272Z,8.77
2019-01-19T17:01:01.274Z,8.53
2019-01-19T17:04:11.178Z,8.40
2019-01-19T17:07:34.386Z,11.47
2019-01-19T17:10:15.838Z,9.80
2019-01-19T17:13:26.198Z,10.07
2019-01-19T17:16:38.434Z,8.70
2019-01-19T17:20:04.738Z,11.47
2019-01-19T17:23:02.749Z,8.43
2019-01-19T17:25:59.084Z,7.03
2019-01-19T17:28:49.560Z,9.67
2019-01-19T17:32:09.041Z,8.87
2019-01-19T17:35:02.198Z,6.47
2019-01-19T17:37:36.058Z,9.70
2019-01-19T17:40:58.408Z,7.63
2019-01-19T17:43:49.042Z,8.57
2019-01-19T17:46:50.870Z,6.70
2019-01-19T17:50:12.785Z,7.70
2019-01-19T17:53:03.669Z,7.63
2019-01-19T17:56:29.253Z,10.87
2019-01-19T18:00:00.658Z,8.60
2019-01-19T18:03:05.902Z,6.87
2019-01-19T18:06:12.978Z,8.77
2019-01-19T18:09:25.491Z,9.77
2019-01-19T18:12:20.520Z,11.97
2019-01-19T18:15:35.982Z,12.73
2019-01-19T18:18:17.468Z,11.70
2019-01-19T18:21:18.670Z,10.30
2019-01-19T18:24:31.663Z,13.50
2019-01-19T18:27:29.302Z,10.77
2019-01-19T18:30:22.194Z,9.90
2019-01-19T18:33:34.373Z,11.13
2019-01-19T18:36:35.027Z,12.03
2019-01-19T18:39:15.552Z,14.87
2019-01-19T18:42:11.417Z,14.93
2019-01-19T18:45:24.731Z,11.67
2019-01-19T18:48:13.489Z,12.53
2019-01-19T18:51:22.027Z,11.97
2019-01-19T18:54:37.648Z,13.93
2019-01-19T18:57:52.359Z,11.90
2019-01-19T19:00:53.942Z,12.40
2019-01-19T19:04:06.081Z,12.83
2019-01-19T19:07:10.888Z,10.17
2019-01-19T19:10:17.311Z,11.63
2019-01-19T19:13:18.377Z,14.57
2019-01-19T19:16:27.228Z,12.13
2019-01-19T19:19:26.467Z,10.97
2019-01-19T19:22:27.404Z,12.40
2019-01-19T19:25:30.482Z,11.50
2019-01-19T19:28:38.071Z,11.77
2019-01-19T19:31:57.340Z,10.23
2019-01-19T19:35:12.410Z,11.73
2019-01-19T19:38:20.981Z,9.30
2019-01-19T19:41:23.948Z,10.93
2019-01-19T19:44:52.697Z,10.47
2019-01-19T19:48:09.206Z,11.70
2019-01-19T19:51:16.527Z,12.13
2019-01-19T19:53:45.872Z,10.10
2019-01-19T19:56:13.641Z,13.83
2019-01-19T19:58:42.840Z,13.27
2019-01-19T20:01:13.975Z,11.13
2019-01-19T20:03:42.896Z,11.60
2019-01-19T20:06:12.127Z,13.17
2019-01-19T20:08:41.312Z,17.80
2019-01-19T20:11:10.510Z,15.40
2019-01-19T20:13:39.743Z,16.23
2019-01-19T20:16:09.321Z,15.70
2019-01-19T20:18:38.480Z,14.77
2019-01-19T20:21:09.750Z,24.67
2019-01-19T20:23:44.465Z,50.37
2019-01-19T20:26:13.706Z,53.10
2019-01-19T20:28:42.956Z,38.10
2019-01-19T20:31:12.162Z,44.20
2019-01-19T20:33:41.282Z,35.13
2019-01-19T20:36:10.429Z,31.90
2019-01-19T20:38:39.670Z,34.03
2019-01-19T20:41:08.938Z,25.47
2019-01-19T20:43:38.186Z,26.93
2019-01-19T20:46:07.406Z,23.93
2019-01-19T20:48:37.449Z,29.33
2019-01-19T20:51:06.678Z,19.43
2019-01-19T20:53:36.130Z,23.43
2019-01-19T20:56:05.674Z,22.80
2019-01-19T20:58:34.899Z,24.23
2019-01-19T21:01:04.134Z,26.40
2019-01-19T21:03:33.800Z,24.47
2019-01-19T21:06:03.034Z,22.10
2019-01-19T21:08:32.241Z,24.77
2019-01-19T21:11:01.535Z,25.20
2019-01-19T21:13:30.774Z,22.40
2019-01-19T21:16:00.068Z,23.83
2019-01-19T21:18:31.612Z,21.50
2019-01-19T21:21:00.949Z,26.00
2019-01-19T21:23:30.309Z,20.50
2019-01-19T21:25:59.500Z,24.03
2019-01-19T21:28:29.072Z,26.50
2019-01-19T21:30:58.293Z,16.67
2019-01-19T21:33:27.848Z,26.60
2019-01-19T21:35:57.050Z,31.27
2019-01-19T21:38:26.263Z,33.20
2019-01-19T21:40:55.773Z,33.97
2019-01-19T21:43:25.257Z,30.97
2019-01-19T21:45:54.915Z,30.63
2019-01-19T21:48:24.125Z,28.67
2019-01-19T21:50:53.678Z,29.57
2019-01-19T21:53:22.834Z,27.07
2019-01-19T21:55:52.402Z,34.27
2019-01-19T21:58:21.599Z,28.93
2019-01-19T22:00:50.844Z,32.77
2019-01-19T22:03:20.026Z,26.30
2019-01-19T22:05:49.998Z,22.93
2019-01-19T22:08:19.999Z,22.50
2019-01-19T22:10:49.171Z,22.23
2019-01-19T22:13:18.386Z,21.63
2019-01-19T22:15:47.731Z,20.60
2019-01-19T22:18:17.061Z,20.70
2019-01-19T22:20:46.389Z,18.77
2019-01-19T22:23:15.856Z,17.97
2019-01-19T22:25:45.539Z,18.70
2019-01-19T22:28:14.917Z,20.83
2019-01-19T22:30:45.458Z,21.07
2019-01-19T22:33:16.491Z,18.60
2019-01-19T22:35:45.716Z,22.70
2019-01-19T22:38:14.974Z,19.10
2019-01-19T22:40:44.185Z,18.13
2019-01-19T22:43:17.882Z,18.73
2019-01-19T22:45:47.261Z,21.37
2019-01-19T22:48:16.452Z,19.00
2019-01-19T22:50:46.030Z,20.50
2019-01-19T22:53:15.218Z,18.77
2019-01-19T22:55:44.349Z,17.23
2019-01-19T22:58:13.638Z,16.57
2019-01-19T23:01:07.216Z,18.07
2019-01-19T23:03:37.954Z,20.70
2019-01-19T23:06:07.219Z,18.53
2019-01-19T23:08:36.384Z,21.87
2019-01-19T23:11:05.741Z,18.37
2019-01-19T23:13:35.064Z,18.87
2019-01-19T23:16:04.326Z,19.33
2019-01-19T23:18:33.553Z,20.17
2019-01-19T23:21:02.806Z,18.07
2019-01-19T23:23:32.927Z,19.30
2019-01-19T23:26:03.684Z,19.10
2019-01-19T23:28:34.179Z,20.03
2019-01-19T23:31:03.388Z,18.13
2019-01-19T23:33:32.902Z,20.90
2019-01-19T23:36:02.233Z,16.47
2019-01-19T23:38:31.705Z,17.83
2019-01-19T23:41:08.649Z,15.47
2019-01-19T23:43:33.344Z,14.60
2019-01-19T23:46:03.124Z,16.80
2019-01-19T23:48:32.555Z,16.97
2019-01-19T23:51:02.832Z,16.67
2019-01-19T23:53:35.345Z,16.67
2019-01-19T23:56:04.241Z,14.43
2019-01-19T23:58:33.343Z,16.23
